createdAt,value
2018-12-23T00:00:37.078Z,8.50
2018-12-23T00:03:06.128Z,7.20
2018-12-23T00:05:35.185Z,6.17
2018-12-23T00:08:04.287Z,6.50
2018-12-23T00:10:33.463Z,8.63
2018-12-23T00:13:02.403Z,10.20
2018-12-23T00:15:31.486Z,9.30
2018-12-23T00:18:00.530Z,7.97
2018-12-23T00:20:29.579Z,7.87
2018-12-23T00:22:58.658Z,9.40
2018-12-23T00:25:27.715Z,8.00
2018-12-23T00:27:56.776Z,9.17
2018-12-23T00:30:25.929Z,9.70
2018-12-23T00:32:54.983Z,10.30
2018-12-23T00:35:24.049Z,11.43
2018-12-23T00:37:53.127Z,12.90
2018-12-23T00:40:22.186Z,14.33
2018-12-23T00:42:51.244Z,12.97
2018-12-23T00:45:20.353Z,11.50
2018-12-23T00:47:49.620Z,10.17
2018-12-23T00:50:18.687Z,10.97
2018-12-23T00:52:47.781Z,14.00
2018-12-23T00:55:16.838Z,14.80
2018-12-23T00:57:45.906Z,14.57
2018-12-23T01:00:14.995Z,16.23
2018-12-23T01:02:44.062Z,15.77
2018-12-23T01:05:13.121Z,15.87
2018-12-23T01:07:42.211Z,17.07
2018-12-23T01:10:11.284Z,20.70
2018-12-23T01:12:40.340Z,20.60
2018-12-23T01:15:09.435Z,17.30
2018-12-23T01:17:38.492Z,16.33
2018-12-23T01:20:07.538Z,14.33
2018-12-23T01:22:36.636Z,13.77
2018-12-23T01:25:05.694Z,16.23
2018-12-23T01:27:34.763Z,16.20
2018-12-23T01:30:03.848Z,15.27
2018-12-23T01:32:32.904Z,15.60
2018-12-23T01:35:01.970Z,14.70
2018-12-23T01:37:31.090Z,15.10
2018-12-23T01:40:00.159Z,15.50
2018-12-23T01:42:29.221Z,17.97
2018-12-23T01:44:58.297Z,19.10
2018-12-23T01:47:27.491Z,19.23
2018-12-23T01:49:56.438Z,21.57
2018-12-23T01:52:25.534Z,21.57
2018-12-23T01:54:54.580Z,20.43
2018-12-23T01:57:23.630Z,18.80
2018-12-23T01:59:52.757Z,11.60
2018-12-23T02:02:21.815Z,8.50
2018-12-23T02:04:50.862Z,8.43
2018-12-23T02:07:19.939Z,8.83
2018-12-23T02:09:48.993Z,8.33
2018-12-23T02:12:18.044Z,8.43
2018-12-23T02:14:47.125Z,8.67
2018-12-23T02:20:18.303Z,8.97
2018-12-23T02:22:47.355Z,9.53
2018-12-23T02:25:16.474Z,9.87
2018-12-23T02:27:45.486Z,9.70
2018-12-23T02:30:14.546Z,9.50
2018-12-23T02:32:43.678Z,9.40
2018-12-23T02:35:12.836Z,10.73
2018-12-23T02:37:41.899Z,10.53
2018-12-23T02:40:10.940Z,9.80
2018-12-23T02:42:40.054Z,9.07
2018-12-23T02:45:09.106Z,8.87
2018-12-23T02:47:38.315Z,9.97
2018-12-23T02:50:07.433Z,9.70
2018-12-23T02:52:36.500Z,8.83
2018-12-23T02:55:05.537Z,9.33
2018-12-23T02:57:34.635Z,9.57
2018-12-23T03:00:03.684Z,12.10
2018-12-23T03:02:32.738Z,12.73
2018-12-23T03:05:01.840Z,12.90
2018-12-23T03:07:30.915Z,14.13
2018-12-23T03:09:59.968Z,13.63
2018-12-23T03:12:29.057Z,12.13
2018-12-23T03:14:58.119Z,14.40
2018-12-23T03:17:27.227Z,13.87
2018-12-23T03:19:56.278Z,15.37
2018-12-23T03:22:25.338Z,13.27
2018-12-23T03:24:54.405Z,14.23
2018-12-23T03:30:20.802Z,12.70
2018-12-23T03:32:49.893Z,11.23
2018-12-23T03:35:18.955Z,11.17
2018-12-23T03:37:48.015Z,10.83
2018-12-23T03:40:17.113Z,9.93
2018-12-23T03:42:46.169Z,10.53
2018-12-23T03:45:15.239Z,8.73
2018-12-23T03:47:44.355Z,9.33
2018-12-23T03:50:13.420Z,8.50
2018-12-23T03:52:42.478Z,8.73
2018-12-23T03:55:11.562Z,7.03
2018-12-23T03:57:48.575Z,6.93
2018-12-23T04:00:17.659Z,6.13
2018-12-23T04:02:46.712Z,4.87
2018-12-23T04:05:15.764Z,5.77
2018-12-23T04:07:44.860Z,5.40
2018-12-23T04:10:13.892Z,5.70
2018-12-23T04:12:42.934Z,5.13
2018-12-23T04:15:12.025Z,5.50
2018-12-23T04:17:41.064Z,6.17
2018-12-23T04:20:10.117Z,6.90
2018-12-23T04:22:39.195Z,5.80
2018-12-23T04:25:08.252Z,7.87
2018-12-23T04:27:37.303Z,8.77
2018-12-23T04:30:06.397Z,8.57
2018-12-23T04:32:35.436Z,7.87
2018-12-23T04:35:04.491Z,7.87
2018-12-23T04:37:33.584Z,7.83
2018-12-23T04:40:02.642Z,8.60
2018-12-23T04:42:31.688Z,8.10
2018-12-23T04:45:00.782Z,8.93
2018-12-23T04:47:29.840Z,8.43
2018-12-23T04:49:58.886Z,9.63
2018-12-23T04:52:27.991Z,9.83
2018-12-23T04:54:57.043Z,9.20
2018-12-23T04:57:26.104Z,10.10
2018-12-23T04:59:55.182Z,10.00
2018-12-23T05:02:24.233Z,9.07
2018-12-23T05:04:53.290Z,9.53
2018-12-23T05:07:34.391Z,10.30
2018-12-23T05:10:03.448Z,9.83
2018-12-23T05:12:32.502Z,9.83
2018-12-23T05:15:01.590Z,10.63
2018-12-23T05:17:30.641Z,11.13
2018-12-23T05:19:59.702Z,10.67
2018-12-23T05:22:28.799Z,10.33
2018-12-23T05:24:57.875Z,10.77
2018-12-23T05:27:44.373Z,11.43
2018-12-23T05:30:13.436Z,11.43
2018-12-23T05:32:42.497Z,11.37
2018-12-23T05:35:11.593Z,10.73
2018-12-23T05:37:40.661Z,10.77
2018-12-23T05:40:09.729Z,11.10
2018-12-23T05:42:38.816Z,11.40
2018-12-23T05:45:07.886Z,12.53
2018-12-23T05:47:53.873Z,12.90
2018-12-23T05:50:22.934Z,12.67
2018-12-23T05:52:52.009Z,13.97
2018-12-23T05:55:24.345Z,12.97
2018-12-23T05:57:53.400Z,13.40
2018-12-23T06:00:22.475Z,14.20
2018-12-23T06:02:51.584Z,13.97
2018-12-23T06:05:20.649Z,14.60
2018-12-23T06:07:49.772Z,14.03
2018-12-23T06:10:18.896Z,13.23
2018-12-23T06:12:47.955Z,14.47
2018-12-23T06:15:17.000Z,15.53
2018-12-23T06:17:46.088Z,16.40
2018-12-23T06:20:15.157Z,20.77
2018-12-23T06:22:44.210Z,23.13
2018-12-23T06:25:13.297Z,27.83
2018-12-23T06:27:42.350Z,20.50
2018-12-23T06:30:11.412Z,17.23
2018-12-23T06:32:40.514Z,16.60
2018-12-23T06:35:09.630Z,17.97
2018-12-23T06:37:38.644Z,16.40
2018-12-23T06:40:07.739Z,15.00
2018-12-23T06:42:36.799Z,15.30
2018-12-23T06:45:05.848Z,16.80
2018-12-23T06:47:34.945Z,19.00
2018-12-23T06:50:04.056Z,18.00
2018-12-23T06:52:33.123Z,13.30
2018-12-23T06:55:02.230Z,12.63
2018-12-23T06:57:31.288Z,12.07
2018-12-23T07:00:00.357Z,12.47
2018-12-23T07:02:29.439Z,13.33
2018-12-23T07:04:58.500Z,13.40
2018-12-23T07:07:27.564Z,14.40
2018-12-23T07:09:56.655Z,14.33
2018-12-23T07:12:25.711Z,14.73
2018-12-23T07:14:54.779Z,14.53
2018-12-23T07:17:23.894Z,16.47
2018-12-23T07:19:52.956Z,17.23
2018-12-23T07:22:22.017Z,22.70
2018-12-23T07:24:52.052Z,21.43
2018-12-23T07:27:21.116Z,24.30
2018-12-23T07:29:54.237Z,22.30
2018-12-23T07:32:27.543Z,21.87
2018-12-23T07:34:56.811Z,21.67
2018-12-23T07:37:27.699Z,21.60
2018-12-23T07:39:54.954Z,25.30
2018-12-23T07:42:24.045Z,25.37
2018-12-23T07:44:53.105Z,28.40
2018-12-23T07:47:22.148Z,25.87
2018-12-23T07:49:51.241Z,24.43
2018-12-23T07:52:20.310Z,23.37
2018-12-23T07:54:49.374Z,22.80
2018-12-23T07:57:18.612Z,24.40
2018-12-23T07:59:47.670Z,25.73
2018-12-23T08:02:16.747Z,27.57
2018-12-23T08:04:45.827Z,28.97
2018-12-23T08:07:14.891Z,29.93
2018-12-23T08:09:43.948Z,30.13
2018-12-23T08:12:13.111Z,30.63
2018-12-23T08:14:42.160Z,33.40
2018-12-23T08:17:11.218Z,38.47
2018-12-23T08:19:40.354Z,52.27
2018-12-23T08:22:09.415Z,52.17
2018-12-23T08:24:38.481Z,50.87
2018-12-23T08:27:07.569Z,48.53
2018-12-23T08:29:36.633Z,59.53
2018-12-23T08:32:05.688Z,57.60
2018-12-23T08:34:34.785Z,53.00
2018-12-23T08:37:03.850Z,49.07
2018-12-23T08:39:32.918Z,56.97
2018-12-23T08:42:02.168Z,79.97
2018-12-23T08:44:31.218Z,63.27
2018-12-23T08:47:00.282Z,62.00
2018-12-23T08:49:29.382Z,54.23
2018-12-23T08:51:58.443Z,52.40
2018-12-23T08:54:27.512Z,51.03
2018-12-23T08:56:56.613Z,57.70
2018-12-23T08:59:25.687Z,46.07
2018-12-23T09:01:54.737Z,39.50
2018-12-23T09:04:23.843Z,37.63
2018-12-23T09:06:57.436Z,42.30
2018-12-23T09:09:26.594Z,47.93
2018-12-23T09:11:55.656Z,43.33
2018-12-23T09:14:24.711Z,37.37
2018-12-23T09:16:53.800Z,39.83
2018-12-23T09:19:22.865Z,45.07
2018-12-23T09:21:51.933Z,35.40
2018-12-23T09:24:21.039Z,44.27
2018-12-23T09:26:50.159Z,38.23
2018-12-23T09:29:19.226Z,33.90
2018-12-23T09:31:48.311Z,32.00
2018-12-23T09:34:17.394Z,51.37
2018-12-23T09:36:47.737Z,51.67
2018-12-23T09:39:15.534Z,35.17
2018-12-23T09:41:44.592Z,64.27
2018-12-23T09:44:13.661Z,58.03
2018-12-23T09:46:46.163Z,44.83
2018-12-23T09:49:15.221Z,66.33
2018-12-23T09:51:44.280Z,47.30
2018-12-23T09:54:13.365Z,52.17
2018-12-23T09:56:42.427Z,45.87
2018-12-23T09:59:11.485Z,46.83
2018-12-23T10:01:40.574Z,39.23
2018-12-23T10:04:09.637Z,39.57
2018-12-23T10:07:03.395Z,40.40
2018-12-23T10:09:32.463Z,36.60
2018-12-23T10:12:01.544Z,29.23
2018-12-23T10:14:30.610Z,29.70
2018-12-23T10:16:59.672Z,38.77
2018-12-23T10:19:28.764Z,38.47
2018-12-23T10:21:57.834Z,33.93
2018-12-23T10:24:26.891Z,24.53
2018-12-23T10:26:55.993Z,25.57
2018-12-23T10:29:25.068Z,29.13
2018-12-23T10:31:54.143Z,26.50
2018-12-23T10:34:23.259Z,23.70
2018-12-23T10:36:52.334Z,24.10
2018-12-23T10:39:21.398Z,27.13
2018-12-23T10:41:50.477Z,31.93
2018-12-23T10:44:19.528Z,26.07
2018-12-23T10:46:48.589Z,25.37
2018-12-23T10:49:17.694Z,30.37
2018-12-23T10:51:46.750Z,26.63
2018-12-23T10:54:15.813Z,28.63
2018-12-23T10:56:44.897Z,24.67
2018-12-23T10:59:13.971Z,26.70
2018-12-23T11:01:43.029Z,31.40
2018-12-23T11:04:12.119Z,26.00
2018-12-23T11:06:41.184Z,24.33
2018-12-23T11:09:10.256Z,26.43
2018-12-23T11:11:39.406Z,26.33
2018-12-23T11:14:08.462Z,26.13
2018-12-23T11:16:37.527Z,33.07
2018-12-23T11:19:06.612Z,29.97
2018-12-23T11:21:37.209Z,38.57
2018-12-23T11:24:04.761Z,39.70
2018-12-23T11:26:33.851Z,53.80
2018-12-23T11:29:02.918Z,46.30
2018-12-23T11:31:31.972Z,42.33
2018-12-23T11:34:01.075Z,34.20
2018-12-23T11:39:29.972Z,30.40
2018-12-23T11:41:59.026Z,37.60
2018-12-23T11:44:28.090Z,57.50
2018-12-23T11:46:59.215Z,30.20
2018-12-23T11:49:28.269Z,51.33
2018-12-23T11:51:57.322Z,39.67
2018-12-23T11:54:26.427Z,58.77
2018-12-23T11:56:55.495Z,63.30
2018-12-23T11:59:24.561Z,56.30
2018-12-23T12:01:53.655Z,55.57
2018-12-23T12:04:22.713Z,49.67
2018-12-23T12:07:04.974Z,53.60
2018-12-23T12:09:34.039Z,43.77
2018-12-23T12:12:03.106Z,47.40
2018-12-23T12:14:32.216Z,50.73
2018-12-23T12:17:01.280Z,36.63
2018-12-23T12:19:30.354Z,42.53
2018-12-23T12:21:59.431Z,40.80
2018-12-23T12:24:28.500Z,41.30
2018-12-23T12:26:57.560Z,39.77
2018-12-23T12:29:26.643Z,41.37
2018-12-23T12:31:55.716Z,48.20
2018-12-23T12:34:24.773Z,82.93
2018-12-23T12:36:53.887Z,71.93
2018-12-23T12:39:22.961Z,95.43
2018-12-23T12:41:52.030Z,90.37
2018-12-23T12:44:21.133Z,116.53
2018-12-23T12:46:50.207Z,202.63
2018-12-23T12:49:19.275Z,172.37
2018-12-23T12:51:48.380Z,145.20
2018-12-23T12:54:17.455Z,308.80
2018-12-23T12:56:46.521Z,139.47
2018-12-23T12:59:15.612Z,95.40
2018-12-23T13:01:44.674Z,100.67
2018-12-23T13:04:13.738Z,106.73
2018-12-23T13:06:42.850Z,143.53
2018-12-23T13:09:11.916Z,143.40
2018-12-23T13:11:40.981Z,126.83
2018-12-23T13:14:10.084Z,112.83
2018-12-23T13:19:41.856Z,105.37
2018-12-23T13:22:10.928Z,110.33
2018-12-23T13:24:39.991Z,95.53
2018-12-23T13:27:09.106Z,89.30
2018-12-23T13:29:38.169Z,132.03
2018-12-23T13:32:07.245Z,136.67
2018-12-23T13:34:36.345Z,111.70
2018-12-23T13:37:05.416Z,90.73
2018-12-23T13:39:34.480Z,104.53
2018-12-23T13:42:05.117Z,106.10
2018-12-23T13:44:48.363Z,115.17
2018-12-23T13:47:23.103Z,117.83
2018-12-23T13:49:58.686Z,100.70
2018-12-23T13:52:30.466Z,160.87
2018-12-23T13:54:59.540Z,140.90
2018-12-23T13:57:28.798Z,136.73
2018-12-23T14:00:16.796Z,98.50
2018-12-23T14:02:47.568Z,85.23
2018-12-23T14:05:16.611Z,73.37
2018-12-23T14:07:45.752Z,58.23
2018-12-23T14:10:16.403Z,49.60
2018-12-23T14:12:43.877Z,49.63
2018-12-23T14:15:12.967Z,233.03
2018-12-23T14:17:42.040Z,88.73
2018-12-23T14:20:11.095Z,87.00
2018-12-23T14:22:40.209Z,139.40
2018-12-23T14:25:09.392Z,72.93
2018-12-23T14:27:38.363Z,53.90
2018-12-23T14:30:07.698Z,52.83
2018-12-23T14:32:36.772Z,69.43
2018-12-23T14:35:05.841Z,83.17
2018-12-23T14:37:34.930Z,79.80
2018-12-23T14:40:04.008Z,84.40
2018-12-23T14:42:35.336Z,63.80
2018-12-23T14:45:04.492Z,66.27
2018-12-23T14:47:33.564Z,63.47
2018-12-23T14:50:02.644Z,83.53
2018-12-23T14:52:31.800Z,101.97
2018-12-23T14:55:00.868Z,78.70
2018-12-23T14:57:30.783Z,61.90
2018-12-23T14:59:59.042Z,74.10
2018-12-23T15:02:28.109Z,73.63
2018-12-23T15:04:57.173Z,113.00
2018-12-23T15:10:27.329Z,44.30
2018-12-23T15:12:56.428Z,66.03
2018-12-23T15:15:24.912Z,69.23
2018-12-23T15:17:54.417Z,109.00
2018-12-23T15:20:23.549Z,87.17
2018-12-23T15:22:52.628Z,92.77
2018-12-23T15:25:21.767Z,80.30
2018-12-23T15:27:50.915Z,111.37
2018-12-23T15:30:19.989Z,66.80
2018-12-23T15:32:49.059Z,73.17
2018-12-23T15:35:18.144Z,73.40
2018-12-23T15:37:47.242Z,66.73
2018-12-23T15:40:16.315Z,68.90
2018-12-23T15:42:45.410Z,97.33
2018-12-23T15:45:14.538Z,148.50
2018-12-23T15:47:48.922Z,157.67
2018-12-23T15:50:17.985Z,145.03
2018-12-23T15:52:47.046Z,139.37
2018-12-23T15:55:16.152Z,130.67
2018-12-23T15:57:45.249Z,126.73
2018-12-23T16:00:14.318Z,123.70
2018-12-23T16:02:43.430Z,145.87
2018-12-23T16:05:12.527Z,133.67
2018-12-23T16:07:41.605Z,117.37
2018-12-23T16:10:10.854Z,123.93
2018-12-23T16:12:39.926Z,131.23
2018-12-23T16:15:08.996Z,119.43
2018-12-23T16:17:38.100Z,101.63
2018-12-23T16:20:07.176Z,87.10
2018-12-23T16:22:36.250Z,96.23
2018-12-23T16:25:05.355Z,86.70
2018-12-23T16:27:34.430Z,93.57
2018-12-23T16:30:03.492Z,103.30
2018-12-23T16:32:32.639Z,116.17
2018-12-23T16:35:01.715Z,132.77
2018-12-23T16:37:30.801Z,128.03
2018-12-23T16:39:59.935Z,130.17
2018-12-23T16:42:28.980Z,70.33
2018-12-23T16:44:58.050Z,69.00
2018-12-23T16:47:27.180Z,63.63
2018-12-23T16:49:56.253Z,67.27
2018-12-23T16:52:25.312Z,60.53
2018-12-23T16:54:54.454Z,74.57
2018-12-23T16:57:23.504Z,80.47
2018-12-23T16:59:52.573Z,72.50
2018-12-23T17:02:21.691Z,64.93
2018-12-23T17:04:50.763Z,53.70
2018-12-23T17:07:19.831Z,66.73
2018-12-23T17:09:48.957Z,70.23
2018-12-23T17:12:18.043Z,59.07
2018-12-23T17:14:47.119Z,72.10
2018-12-23T17:17:16.266Z,77.43
2018-12-23T17:19:45.342Z,96.60
2018-12-23T17:22:14.410Z,100.97
2018-12-23T17:24:43.611Z,103.47
2018-12-23T17:27:12.708Z,100.63
2018-12-23T17:29:41.848Z,70.87
2018-12-23T17:32:10.933Z,65.80
2018-12-23T17:34:40.014Z,65.40
2018-12-23T17:37:09.076Z,76.43
2018-12-23T17:39:38.223Z,71.27
2018-12-23T17:42:07.297Z,139.20
2018-12-23T17:44:36.363Z,145.07
2018-12-23T17:50:21.371Z,109.63
2018-12-23T17:52:50.467Z,108.33
2018-12-23T17:55:19.531Z,96.50
2018-12-23T17:57:48.599Z,83.93
2018-12-23T18:00:17.706Z,84.73
2018-12-23T18:02:46.793Z,118.00
2018-12-23T18:05:15.879Z,121.23
2018-12-23T18:07:44.980Z,116.37
2018-12-23T18:10:14.053Z,145.23
2018-12-23T18:12:43.120Z,129.60
2018-12-23T18:15:12.257Z,115.03
2018-12-23T18:17:41.324Z,140.40
2018-12-23T18:20:10.400Z,121.07
2018-12-23T18:22:39.540Z,114.67
2018-12-23T18:25:08.620Z,105.20
2018-12-23T18:27:37.741Z,122.47
2018-12-23T18:30:06.846Z,126.03
2018-12-23T18:32:35.931Z,106.17
2018-12-23T18:35:05.177Z,70.00
2018-12-23T18:37:34.275Z,60.17
2018-12-23T18:40:03.338Z,87.87
2018-12-23T18:42:32.400Z,55.60
2018-12-23T18:45:01.538Z,88.13
2018-12-23T18:47:30.611Z,173.47
2018-12-23T18:49:59.672Z,68.07
2018-12-23T18:52:28.810Z,48.63
2018-12-23T18:54:57.866Z,43.03
2018-12-23T18:57:26.921Z,41.83
2018-12-23T18:59:56.003Z,40.77
2018-12-23T19:02:25.077Z,65.37
2018-12-23T19:04:54.149Z,45.33
2018-12-23T19:07:23.268Z,35.40
2018-12-23T19:09:52.354Z,26.20
2018-12-23T19:12:26.360Z,27.13
2018-12-23T19:15:02.916Z,27.23
2018-12-23T19:17:34.593Z,31.87
2018-12-23T19:20:05.303Z,23.37
2018-12-23T19:22:34.357Z,21.47
2018-12-23T19:25:05.447Z,24.60
2018-12-23T19:27:36.429Z,22.67
2018-12-23T19:30:12.956Z,21.67
2018-12-23T19:32:56.139Z,17.87
2018-12-23T19:35:29.022Z,23.13
2018-12-23T19:38:00.876Z,27.33
2018-12-23T19:40:51.511Z,25.83
2018-12-23T19:43:39.368Z,27.50
2018-12-23T19:46:20.992Z,32.60
2018-12-23T19:48:57.929Z,31.37
2018-12-23T19:51:32.009Z,30.23
2018-12-23T19:54:01.903Z,24.17
2018-12-23T19:56:33.677Z,26.47
2018-12-23T19:59:08.515Z,29.30
2018-12-23T20:01:56.282Z,40.53
2018-12-23T20:04:26.182Z,46.27
2018-12-23T20:06:58.823Z,51.73
2018-12-23T20:09:42.113Z,50.30
2018-12-23T20:12:18.718Z,37.87
2018-12-23T20:14:50.712Z,27.50
2018-12-23T20:17:26.276Z,54.47
2018-12-23T20:19:58.869Z,67.47
2018-12-23T20:22:32.672Z,45.63
2018-12-23T20:25:01.734Z,39.63
2018-12-23T20:27:34.490Z,26.60
2018-12-23T20:30:07.219Z,27.37
2018-12-23T20:32:41.295Z,33.57
2018-12-23T20:35:16.009Z,31.83
2018-12-23T20:37:46.916Z,30.60
2018-12-23T20:40:27.795Z,31.47
2018-12-23T20:43:02.458Z,29.97
2018-12-23T20:45:43.345Z,31.57
2018-12-23T20:48:12.429Z,30.47
2018-12-23T20:50:41.517Z,27.77
2018-12-23T20:56:03.546Z,25.87
2018-12-23T20:58:37.413Z,23.80
2018-12-23T21:01:22.095Z,21.90
2018-12-23T21:03:57.021Z,22.10
2018-12-23T21:06:28.786Z,27.83
2018-12-23T21:08:58.773Z,33.43
2018-12-23T21:11:32.397Z,31.73
2018-12-23T21:14:07.184Z,27.67
2018-12-23T21:16:37.124Z,25.47
2018-12-23T21:19:06.985Z,23.20
2018-12-23T21:21:36.844Z,22.40
2018-12-23T21:24:11.845Z,22.57
2018-12-23T21:26:47.392Z,22.83
2018-12-23T21:29:19.400Z,23.63
2018-12-23T21:31:50.277Z,24.50
2018-12-23T21:34:27.083Z,23.53
2018-12-23T21:36:59.897Z,26.47
2018-12-23T21:39:30.931Z,27.87
2018-12-23T21:42:04.824Z,27.57
2018-12-23T21:44:35.709Z,29.77
2018-12-23T21:47:14.213Z,33.67
2018-12-23T21:49:49.318Z,37.30
2018-12-23T21:52:18.377Z,44.13
2018-12-23T21:54:50.288Z,41.60
2018-12-23T21:57:34.618Z,37.13
2018-12-23T22:02:57.399Z,34.83
2018-12-23T22:05:28.451Z,31.60
2018-12-23T22:08:11.449Z,28.23
2018-12-23T22:10:47.300Z,27.37
2018-12-23T22:13:30.532Z,25.37
2018-12-23T22:15:59.625Z,22.03
2018-12-23T22:18:28.688Z,21.97
2018-12-23T22:20:57.758Z,44.33
2018-12-23T22:23:26.888Z,26.30
2018-12-23T22:25:55.947Z,16.83
2018-12-23T22:28:25.003Z,12.03
2018-12-23T22:30:54.097Z,13.47
2018-12-23T22:33:23.153Z,12.63
2018-12-23T22:35:52.213Z,13.20
2018-12-23T22:38:21.322Z,15.27
2018-12-23T22:40:50.368Z,10.83
2018-12-23T22:43:19.489Z,11.23
2018-12-23T22:45:48.596Z,11.67
2018-12-23T22:48:17.659Z,11.90
2018-12-23T22:50:46.712Z,12.00
2018-12-23T22:53:15.844Z,10.67
2018-12-23T22:55:44.912Z,13.17
2018-12-23T22:58:13.964Z,10.77
2018-12-23T23:00:43.053Z,9.00
2018-12-23T23:03:12.128Z,9.57
2018-12-23T23:05:41.181Z,10.60
2018-12-23T23:08:10.384Z,10.43
2018-12-23T23:10:39.465Z,10.57
2018-12-23T23:13:08.526Z,9.67
2018-12-23T23:15:37.612Z,6.30
2018-12-23T23:18:06.662Z,6.67
2018-12-23T23:20:35.730Z,10.07
2018-12-23T23:23:04.812Z,28.13
2018-12-23T23:25:33.869Z,7.83
2018-12-23T23:28:02.916Z,6.07
2018-12-23T23:30:31.995Z,5.10
2018-12-23T23:33:01.045Z,5.83
2018-12-23T23:35:30.157Z,3.50
2018-12-23T23:37:59.232Z,4.80
2018-12-23T23:40:28.270Z,4.87
2018-12-23T23:42:57.311Z,3.77
2018-12-23T23:45:26.378Z,3.83
2018-12-23T23:47:55.420Z,5.30
2018-12-23T23:50:24.470Z,2.33
2018-12-23T23:52:53.567Z,4.17
2018-12-23T23:55:22.613Z,6.33
2018-12-23T23:57:51.665Z,6.57
